sensor_id;sensor_type;location;lat;lon;timestamp;temperature;humidity
18781;DHT22;9519;51.890;8.970;2022-12-19T00:04:05;0.00;99.90
18781;DHT22;9519;51.890;8.970;2022-12-19T00:09:12;-0.10;99.90
18781;DHT22;9519;51.890;8.970;2022-12-19T00:24:20;0.00;99.90
18781;DHT22;9519;51.890;8.970;2022-12-19T00:39:28;0.10;99.90
18781;DHT22;9519;51.890;8.970;2022-12-19T00:54:36;0.20;99.90
18781;DHT22;9519;51.890;8.970;2022-12-19T00:59:39;0.20;99.90
18781;DHT22;9519;51.890;8.970;2022-12-19T01:09:45;0.50;99.90
18781;DHT22;9519;51.890;8.970;2022-12-19T01:19:49;0.30;99.90
18781;DHT22;9519;51.890;8.970;2022-12-19T01:24:52;0.40;99.90
18781;DHT22;9519;51.890;8.970;2022-12-19T01:29:55;0.40;99.90
18781;DHT22;9519;51.890;8.970;2022-12-19T01:40:00;0.50;99.90
18781;DHT22;9519;51.890;8.970;2022-12-19T01:45:26;0.60;99.90
18781;DHT22;9519;51.890;8.970;2022-12-19T01:50:33;0.60;99.90
18781;DHT22;9519;51.890;8.970;2022-12-19T01:55:40;0.70;99.90
18781;DHT22;9519;51.890;8.970;2022-12-19T02:10:51;0.70;99.90
18781;DHT22;9519;51.890;8.970;2022-12-19T02:15:56;0.80;99.90
18781;DHT22;9519;51.890;8.970;2022-12-19T02:21:21;0.80;99.90
18781;DHT22;9519;51.890;8.970;2022-12-19T02:32:48;1.00;99.90
18781;DHT22;9519;51.890;8.970;2022-12-19T02:38:10;1.00;99.90
18781;DHT22;9519;51.890;8.970;2022-12-19T02:43:19;1.00;99.90
18781;DHT22;9519;51.890;8.970;2022-12-19T02:48:24;1.10;99.90
18781;DHT22;9519;51.890;8.970;2022-12-19T02:53:28;1.20;99.90
18781;DHT22;9519;51.890;8.970;2022-12-19T02:58:42;1.10;99.90
18781;DHT22;9519;51.890;8.970;2022-12-19T03:03:59;1.00;99.90
18781;DHT22;9519;51.890;8.970;2022-12-19T03:09:12;1.10;99.90
18781;DHT22;9519;51.890;8.970;2022-12-19T03:14:19;1.10;99.90
18781;DHT22;9519;51.890;8.970;2022-12-19T03:19:24;1.00;99.90
18781;DHT22;9519;51.890;8.970;2022-12-19T03:24:29;1.20;99.90
18781;DHT22;9519;51.890;8.970;2022-12-19T03:29:34;1.00;99.90
18781;DHT22;9519;51.890;8.970;2022-12-19T03:34:45;1.10;99.90
18781;DHT22;9519;51.890;8.970;2022-12-19T03:39:52;1.00;99.90
18781;DHT22;9519;51.890;8.970;2022-12-19T03:44:57;1.20;99.90
18781;DHT22;9519;51.890;8.970;2022-12-19T03:50:04;1.20;99.90
18781;DHT22;9519;51.890;8.970;2022-12-19T03:55:12;1.30;99.90
18781;DHT22;9519;51.890;8.970;2022-12-19T04:05:24;1.10;99.90
18781;DHT22;9519;51.890;8.970;2022-12-19T04:10:29;1.40;99.90
18781;DHT22;9519;51.890;8.970;2022-12-19T04:15:36;1.00;99.90
18781;DHT22;9519;51.890;8.970;2022-12-19T04:20:51;1.20;99.90
18781;DHT22;9519;51.890;8.970;2022-12-19T04:26:01;1.10;99.90
18781;DHT22;9519;51.890;8.970;2022-12-19T04:31:06;1.20;99.90
18781;DHT22;9519;51.890;8.970;2022-12-19T04:36:13;1.20;99.90
18781;DHT22;9519;51.890;8.970;2022-12-19T04:46:17;1.10;99.90
18781;DHT22;9519;51.890;8.970;2022-12-19T04:51:21;1.20;99.90
18781;DHT22;9519;51.890;8.970;2022-12-19T05:06:29;1.30;99.90
18781;DHT22;9519;51.890;8.970;2022-12-19T05:11:32;1.10;99.90
18781;DHT22;9519;51.890;8.970;2022-12-19T05:16:34;1.20;99.90
18781;DHT22;9519;51.890;8.970;2022-12-19T05:21:39;1.20;99.90
18781;DHT22;9519;51.890;8.970;2022-12-19T05:31:43;1.20;99.90
18781;DHT22;9519;51.890;8.970;2022-12-19T05:36:47;1.30;99.90
18781;DHT22;9519;51.890;8.970;2022-12-19T05:41:49;1.70;99.90
18781;DHT22;9519;51.890;8.970;2022-12-19T05:46:51;1.40;99.90
18781;DHT22;9519;51.890;8.970;2022-12-19T05:51:54;1.60;99.90
18781;DHT22;9519;51.890;8.970;2022-12-19T05:56:56;1.40;99.90
18781;DHT22;9519;51.890;8.970;2022-12-19T06:01:58;1.70;99.90
18781;DHT22;9519;51.890;8.970;2022-12-19T06:07:02;1.50;99.90
18781;DHT22;9519;51.890;8.970;2022-12-19T06:12:05;1.70;99.90
18781;DHT22;9519;51.890;8.970;2022-12-19T06:17:08;1.60;99.90
18781;DHT22;9519;51.890;8.970;2022-12-19T06:22:11;1.70;99.90
18781;DHT22;9519;51.890;8.970;2022-12-19T06:27:13;2.00;99.90
18781;DHT22;9519;51.890;8.970;2022-12-19T06:37:19;2.00;99.90
18781;DHT22;9519;51.890;8.970;2022-12-19T06:47:24;2.20;99.90
18781;DHT22;9519;51.890;8.970;2022-12-19T06:52:27;2.20;99.90
18781;DHT22;9519;51.890;8.970;2022-12-19T06:57:29;2.60;99.90
18781;DHT22;9519;51.890;8.970;2022-12-19T07:02:31;2.20;99.90
18781;DHT22;9519;51.890;8.970;2022-12-19T07:07:35;2.10;99.90
18781;DHT22;9519;51.890;8.970;2022-12-19T07:12:38;2.40;99.90
18781;DHT22;9519;51.890;8.970;2022-12-19T07:17:40;2.00;99.90
18781;DHT22;9519;51.890;8.970;2022-12-19T07:22:44;2.30;99.90
18781;DHT22;9519;51.890;8.970;2022-12-19T07:27:46;2.00;99.90
18781;DHT22;9519;51.890;8.970;2022-12-19T07:32:48;2.30;99.90
18781;DHT22;9519;51.890;8.970;2022-12-19T07:37:52;2.10;99.90
18781;DHT22;9519;51.890;8.970;2022-12-19T07:42:57;2.20;99.90
18781;DHT22;9519;51.890;8.970;2022-12-19T07:48:00;2.40;99.90
18781;DHT22;9519;51.890;8.970;2022-12-19T07:53:04;2.50;99.90
18781;DHT22;9519;51.890;8.970;2022-12-19T07:58:06;2.50;99.90
18781;DHT22;9519;51.890;8.970;2022-12-19T08:03:09;2.90;99.90
18781;DHT22;9519;51.890;8.970;2022-12-19T08:08:13;2.70;99.90
18781;DHT22;9519;51.890;8.970;2022-12-19T08:13:15;2.60;99.90
18781;DHT22;9519;51.890;8.970;2022-12-19T08:18:17;2.30;99.90
18781;DHT22;9519;51.890;8.970;2022-12-19T08:23:20;2.50;99.90
18781;DHT22;9519;51.890;8.970;2022-12-19T08:28:23;2.60;99.90
18781;DHT22;9519;51.890;8.970;2022-12-19T08:33:25;2.70;99.90
18781;DHT22;9519;51.890;8.970;2022-12-19T08:38:29;2.10;99.90
18781;DHT22;9519;51.890;8.970;2022-12-19T08:43:31;2.50;99.90
18781;DHT22;9519;51.890;8.970;2022-12-19T08:48:35;2.50;99.90
18781;DHT22;9519;51.890;8.970;2022-12-19T08:53:40;2.50;99.90
18781;DHT22;9519;51.890;8.970;2022-12-19T08:58:44;2.50;99.90
18781;DHT22;9519;51.890;8.970;2022-12-19T09:03:47;2.50;99.90
18781;DHT22;9519;51.890;8.970;2022-12-19T09:08:50;2.60;99.90
18781;DHT22;9519;51.890;8.970;2022-12-19T09:13:54;2.60;99.90
18781;DHT22;9519;51.890;8.970;2022-12-19T09:18:57;2.70;99.90
18781;DHT22;9519;51.890;8.970;2022-12-19T09:24:01;2.50;99.90
18781;DHT22;9519;51.890;8.970;2022-12-19T09:29:04;2.60;99.90
18781;DHT22;9519;51.890;8.970;2022-12-19T09:34:06;3.00;99.90
18781;DHT22;9519;51.890;8.970;2022-12-19T09:39:10;2.70;99.90
18781;DHT22;9519;51.890;8.970;2022-12-19T09:44:19;2.80;99.90
18781;DHT22;9519;51.890;8.970;2022-12-19T09:49:33;2.80;99.90
18781;DHT22;9519;51.890;8.970;2022-12-19T09:54:42;2.70;99.90
18781;DHT22;9519;51.890;8.970;2022-12-19T09:59:49;2.90;99.90
18781;DHT22;9519;51.890;8.970;2022-12-19T10:05:02;3.10;99.90
18781;DHT22;9519;51.890;8.970;2022-12-19T10:16:28;2.90;99.90
18781;DHT22;9519;51.890;8.970;2022-12-19T10:21:41;2.90;99.90
18781;DHT22;9519;51.890;8.970;2022-12-19T10:26:51;3.10;99.90
18781;DHT22;9519;51.890;8.970;2022-12-19T10:32:01;2.90;99.90
18781;DHT22;9519;51.890;8.970;2022-12-19T10:37:15;3.00;99.90
18781;DHT22;9519;51.890;8.970;2022-12-19T10:42:27;3.10;99.90
18781;DHT22;9519;51.890;8.970;2022-12-19T10:47:35;3.30;99.90
18781;DHT22;9519;51.890;8.970;2022-12-19T10:53:04;3.40;99.90
18781;DHT22;9519;51.890;8.970;2022-12-19T10:58:27;3.30;99.90
18781;DHT22;9519;51.890;8.970;2022-12-19T11:03:35;3.30;99.90
18781;DHT22;9519;51.890;8.970;2022-12-19T11:08:38;3.40;99.90
18781;DHT22;9519;51.890;8.970;2022-12-19T11:13:42;3.60;99.90
18781;DHT22;9519;51.890;8.970;2022-12-19T11:18:47;3.60;99.90
18781;DHT22;9519;51.890;8.970;2022-12-19T11:23:54;3.70;99.90
18781;DHT22;9519;51.890;8.970;2022-12-19T11:29:01;3.70;99.90
18781;DHT22;9519;51.890;8.970;2022-12-19T11:34:13;3.60;99.90
18781;DHT22;9519;51.890;8.970;2022-12-19T11:39:21;3.50;99.90
18781;DHT22;9519;51.890;8.970;2022-12-19T11:44:34;4.00;99.90
18781;DHT22;9519;51.890;8.970;2022-12-19T11:49:46;3.50;99.90
18781;DHT22;9519;51.890;8.970;2022-12-19T11:54:56;3.40;99.90
18781;DHT22;9519;51.890;8.970;2022-12-19T12:00:03;3.60;99.90
18781;DHT22;9519;51.890;8.970;2022-12-19T12:05:24;3.60;99.90
18781;DHT22;9519;51.890;8.970;2022-12-19T12:10:46;3.60;99.90
18781;DHT22;9519;51.890;8.970;2022-12-19T12:16:00;3.60;99.90
18781;DHT22;9519;51.890;8.970;2022-12-19T12:21:20;3.70;99.90
18781;DHT22;9519;51.890;8.970;2022-12-19T12:26:26;3.70;99.90
18781;DHT22;9519;51.890;8.970;2022-12-19T12:31:51;3.60;99.90
18781;DHT22;9519;51.890;8.970;2022-12-19T12:37:16;3.60;99.90
18781;DHT22;9519;51.890;8.970;2022-12-19T12:42:48;3.70;99.90
18781;DHT22;9519;51.890;8.970;2022-12-19T12:47:57;4.00;99.90
18781;DHT22;9519;51.890;8.970;2022-12-19T12:53:01;4.00;99.90
18781;DHT22;9519;51.890;8.970;2022-12-19T12:58:41;3.80;99.90
18781;DHT22;9519;51.890;8.970;2022-12-19T13:03:53;4.10;99.90
18781;DHT22;9519;51.890;8.970;2022-12-19T13:09:03;3.90;99.90
18781;DHT22;9519;51.890;8.970;2022-12-19T13:14:42;3.60;99.90
18781;DHT22;9519;51.890;8.970;2022-12-19T13:19:54;3.90;99.90
18781;DHT22;9519;51.890;8.970;2022-12-19T13:25:00;4.30;99.90
18781;DHT22;9519;51.890;8.970;2022-12-19T13:30:13;4.00;99.90
18781;DHT22;9519;51.890;8.970;2022-12-19T13:35:31;4.10;99.90
18781;DHT22;9519;51.890;8.970;2022-12-19T13:40:54;4.20;99.90
18781;DHT22;9519;51.890;8.970;2022-12-19T13:46:01;4.00;99.90
18781;DHT22;9519;51.890;8.970;2022-12-19T13:51:07;4.30;99.90
18781;DHT22;9519;51.890;8.970;2022-12-19T13:56:15;3.90;99.90
18781;DHT22;9519;51.890;8.970;2022-12-19T14:01:23;4.00;99.90
18781;DHT22;9519;51.890;8.970;2022-12-19T14:06:29;4.20;99.90
18781;DHT22;9519;51.890;8.970;2022-12-19T14:11:42;4.30;99.90
18781;DHT22;9519;51.890;8.970;2022-12-19T14:16:45;4.10;99.90
18781;DHT22;9519;51.890;8.970;2022-12-19T14:21:48;4.20;99.90
18781;DHT22;9519;51.890;8.970;2022-12-19T14:26:55;4.20;99.90
18781;DHT22;9519;51.890;8.970;2022-12-19T14:32:01;4.30;99.90
18781;DHT22;9519;51.890;8.970;2022-12-19T14:37:04;4.10;99.90
18781;DHT22;9519;51.890;8.970;2022-12-19T14:42:13;4.40;99.90
18781;DHT22;9519;51.890;8.970;2022-12-19T14:47:35;4.20;99.90
18781;DHT22;9519;51.890;8.970;2022-12-19T14:52:40;4.20;99.90
18781;DHT22;9519;51.890;8.970;2022-12-19T14:57:47;4.40;99.90
18781;DHT22;9519;51.890;8.970;2022-12-19T15:02:51;4.10;99.90
18781;DHT22;9519;51.890;8.970;2022-12-19T15:07:55;3.90;99.90
18781;DHT22;9519;51.890;8.970;2022-12-19T15:13:02;4.20;99.90
18781;DHT22;9519;51.890;8.970;2022-12-19T15:18:24;4.20;99.90
18781;DHT22;9519;51.890;8.970;2022-12-19T15:23:29;4.00;99.90
18781;DHT22;9519;51.890;8.970;2022-12-19T15:28:37;3.90;99.90
18781;DHT22;9519;51.890;8.970;2022-12-19T15:33:41;4.00;99.90
18781;DHT22;9519;51.890;8.970;2022-12-19T15:38:43;4.20;99.90
18781;DHT22;9519;51.890;8.970;2022-12-19T15:43:47;4.10;99.90
18781;DHT22;9519;51.890;8.970;2022-12-19T15:48:50;4.00;99.90
18781;DHT22;9519;51.890;8.970;2022-12-19T15:53:52;3.90;99.90
18781;DHT22;9519;51.890;8.970;2022-12-19T15:58:58;3.90;99.90
18781;DHT22;9519;51.890;8.970;2022-12-19T16:09:18;3.60;99.90
18781;DHT22;9519;51.890;8.970;2022-12-19T16:14:24;4.00;99.90
18781;DHT22;9519;51.890;8.970;2022-12-19T16:19:28;4.10;99.90
18781;DHT22;9519;51.890;8.970;2022-12-19T16:24:31;3.80;99.90
18781;DHT22;9519;51.890;8.970;2022-12-19T16:29:35;3.90;99.90
18781;DHT22;9519;51.890;8.970;2022-12-19T16:34:38;3.90;99.90
18781;DHT22;9519;51.890;8.970;2022-12-19T16:39:40;3.90;99.90
18781;DHT22;9519;51.890;8.970;2022-12-19T16:44:44;3.60;99.90
18781;DHT22;9519;51.890;8.970;2022-12-19T16:49:48;3.80;99.90
18781;DHT22;9519;51.890;8.970;2022-12-19T16:54:50;4.20;99.90
18781;DHT22;9519;51.890;8.970;2022-12-19T16:59:53;3.90;99.90
18781;DHT22;9519;51.890;8.970;2022-12-19T17:04:55;3.50;99.90
18781;DHT22;9519;51.890;8.970;2022-12-19T17:09:57;3.90;99.90
18781;DHT22;9519;51.890;8.970;2022-12-19T17:15:03;3.70;99.90
18781;DHT22;9519;51.890;8.970;2022-12-19T17:20:12;3.70;99.90
18781;DHT22;9519;51.890;8.970;2022-12-19T17:25:20;3.80;99.90
18781;DHT22;9519;51.890;8.970;2022-12-19T17:30:25;3.60;99.90
18781;DHT22;9519;51.890;8.970;2022-12-19T17:35:30;4.10;99.90
18781;DHT22;9519;51.890;8.970;2022-12-19T17:40:35;4.20;99.90
18781;DHT22;9519;51.890;8.970;2022-12-19T17:45:39;3.50;99.90
18781;DHT22;9519;51.890;8.970;2022-12-19T17:50:41;3.80;99.90
18781;DHT22;9519;51.890;8.970;2022-12-19T18:00:48;3.90;99.90
18781;DHT22;9519;51.890;8.970;2022-12-19T18:05:53;4.00;99.90
18781;DHT22;9519;51.890;8.970;2022-12-19T18:10:58;4.20;99.90
18781;DHT22;9519;51.890;8.970;2022-12-19T18:16:03;4.10;99.90
18781;DHT22;9519;51.890;8.970;2022-12-19T18:21:12;4.00;99.90
18781;DHT22;9519;51.890;8.970;2022-12-19T18:26:15;3.90;99.90
18781;DHT22;9519;51.890;8.970;2022-12-19T18:31:21;4.10;99.90
18781;DHT22;9519;51.890;8.970;2022-12-19T18:36:26;4.50;99.90
18781;DHT22;9519;51.890;8.970;2022-12-19T18:41:29;4.00;99.90
18781;DHT22;9519;51.890;8.970;2022-12-19T18:46:32;4.60;99.90
18781;DHT22;9519;51.890;8.970;2022-12-19T18:51:35;4.20;99.90
18781;DHT22;9519;51.890;8.970;2022-12-19T18:56:37;4.50;99.90
18781;DHT22;9519;51.890;8.970;2022-12-19T19:01:43;4.30;99.90
18781;DHT22;9519;51.890;8.970;2022-12-19T19:06:46;4.60;99.90
18781;DHT22;9519;51.890;8.970;2022-12-19T19:11:50;4.80;99.90
18781;DHT22;9519;51.890;8.970;2022-12-19T19:16:54;4.40;99.90
18781;DHT22;9519;51.890;8.970;2022-12-19T19:21:56;4.30;99.90
18781;DHT22;9519;51.890;8.970;2022-12-19T19:26:58;4.80;99.90
18781;DHT22;9519;51.890;8.970;2022-12-19T19:32:02;4.60;99.90
18781;DHT22;9519;51.890;8.970;2022-12-19T19:37:06;4.50;99.90
18781;DHT22;9519;51.890;8.970;2022-12-19T19:42:10;4.50;99.90
18781;DHT22;9519;51.890;8.970;2022-12-19T19:47:14;4.80;99.90
18781;DHT22;9519;51.890;8.970;2022-12-19T19:52:16;4.80;99.90
18781;DHT22;9519;51.890;8.970;2022-12-19T19:57:18;4.50;99.90
18781;DHT22;9519;51.890;8.970;2022-12-19T20:02:22;4.80;99.90
18781;DHT22;9519;51.890;8.970;2022-12-19T20:07:24;4.40;99.90
18781;DHT22;9519;51.890;8.970;2022-12-19T20:12:26;4.50;99.90
18781;DHT22;9519;51.890;8.970;2022-12-19T20:17:29;5.00;99.90
18781;DHT22;9519;51.890;8.970;2022-12-19T20:22:31;4.60;99.90
18781;DHT22;9519;51.890;8.970;2022-12-19T20:27:33;4.90;99.90
18781;DHT22;9519;51.890;8.970;2022-12-19T20:32:36;4.90;99.90
18781;DHT22;9519;51.890;8.970;2022-12-19T20:37:38;4.90;99.90
18781;DHT22;9519;51.890;8.970;2022-12-19T20:42:40;4.40;99.90
18781;DHT22;9519;51.890;8.970;2022-12-19T20:47:44;4.60;99.90
18781;DHT22;9519;51.890;8.970;2022-12-19T20:52:46;4.80;99.90
18781;DHT22;9519;51.890;8.970;2022-12-19T20:57:48;5.00;99.90
18781;DHT22;9519;51.890;8.970;2022-12-19T21:02:51;4.90;99.90
18781;DHT22;9519;51.890;8.970;2022-12-19T21:07:55;4.80;99.90
18781;DHT22;9519;51.890;8.970;2022-12-19T21:12:57;4.80;99.90
18781;DHT22;9519;51.890;8.970;2022-12-19T21:18:00;5.00;99.90
18781;DHT22;9519;51.890;8.970;2022-12-19T21:23:03;4.90;99.90
18781;DHT22;9519;51.890;8.970;2022-12-19T21:28:05;5.00;99.90
18781;DHT22;9519;51.890;8.970;2022-12-19T21:33:09;4.90;99.90
18781;DHT22;9519;51.890;8.970;2022-12-19T21:38:11;4.90;99.90
18781;DHT22;9519;51.890;8.970;2022-12-19T21:43:13;4.90;99.90
18781;DHT22;9519;51.890;8.970;2022-12-19T21:48:17;4.90;99.90
18781;DHT22;9519;51.890;8.970;2022-12-19T21:53:19;4.90;99.90
18781;DHT22;9519;51.890;8.970;2022-12-19T21:58:21;4.90;99.90
18781;DHT22;9519;51.890;8.970;2022-12-19T22:03:24;5.00;99.90
18781;DHT22;9519;51.890;8.970;2022-12-19T22:08:26;5.00;99.90
18781;DHT22;9519;51.890;8.970;2022-12-19T22:13:28;5.00;99.90
18781;DHT22;9519;51.890;8.970;2022-12-19T22:18:32;5.10;99.90
18781;DHT22;9519;51.890;8.970;2022-12-19T22:23:35;5.10;99.90
18781;DHT22;9519;51.890;8.970;2022-12-19T22:28:39;5.10;99.90
18781;DHT22;9519;51.890;8.970;2022-12-19T22:33:45;5.20;99.90
18781;DHT22;9519;51.890;8.970;2022-12-19T22:38:48;5.20;99.90
18781;DHT22;9519;51.890;8.970;2022-12-19T22:43:51;5.20;99.90
18781;DHT22;9519;51.890;8.970;2022-12-19T22:48:56;5.20;99.90
18781;DHT22;9519;51.890;8.970;2022-12-19T22:54:02;5.20;99.90
18781;DHT22;9519;51.890;8.970;2022-12-19T22:59:06;5.40;99.90
18781;DHT22;9519;51.890;8.970;2022-12-19T23:04:12;5.20;99.90
18781;DHT22;9519;51.890;8.970;2022-12-19T23:09:17;5.20;99.90
18781;DHT22;9519;51.890;8.970;2022-12-19T23:14:20;5.20;99.90
18781;DHT22;9519;51.890;8.970;2022-12-19T23:19:23;5.20;99.90
18781;DHT22;9519;51.890;8.970;2022-12-19T23:24:25;5.30;99.90
18781;DHT22;9519;51.890;8.970;2022-12-19T23:29:28;5.30;99.90
18781;DHT22;9519;51.890;8.970;2022-12-19T23:34:31;5.30;99.90
18781;DHT22;9519;51.890;8.970;2022-12-19T23:39:34;5.40;99.90
18781;DHT22;9519;51.890;8.970;2022-12-19T23:44:36;5.50;99.90
18781;DHT22;9519;51.890;8.970;2022-12-19T23:49:39;5.50;99.90
18781;DHT22;9519;51.890;8.970;2022-12-19T23:54:41;5.90;99.90
18781;DHT22;9519;51.890;8.970;2022-12-19T23:59:44;6.00;99.90
